Terminal Aerodrome Forecast
Issued by NWS

Current Version | Previous Version | Text Only | Print | Product List | Glossary On
Versions: 1 2 3 4 5 6 7 8 9 10 11 12
000
FTUS41 KCAR 042336
TAFHUL
TAF
KHUL 042336Z 0500/0524 VRB03KT P6SM BKN250
     FM051300 29004KT P6SM BKN250
     FM051800 29008KT P6SM BKN090
      TEMPO 0518/0522 -SHRA BKN050=

USA.gov is the U.S. government's official web portal to all federal, state and local government web resources and services.